createdAt,value
2022-11-08T00:27:23.419Z,100649.31
2022-11-08T00:38:30.243Z,100658.50
2022-11-08T00:45:15.215Z,100655.78
2022-11-08T01:01:27.358Z,100666.59
2022-11-08T01:12:44.578Z,100660.50
2022-11-08T01:32:21.270Z,100649.56
2022-11-08T02:05:44.647Z,100642.81
2022-11-08T02:08:27.229Z,100644.41
2022-11-08T02:10:54.358Z,100648.00
2022-11-08T02:13:24.434Z,100642.81
2022-11-08T02:15:52.001Z,100639.09
2022-11-08T02:27:59.175Z,100635.16
2022-11-08T02:38:57.771Z,100632.91
2022-11-08T02:51:21.673Z,100628.69
2022-11-08T03:02:38.636Z,100632.19
2022-11-08T03:05:06.066Z,100628.03
2022-11-08T03:07:33.252Z,100627.16
2022-11-08T03:14:12.431Z,100636.56
2022-11-08T03:16:39.591Z,100635.81
2022-11-08T03:19:06.689Z,100640.25
2022-11-08T03:21:36.275Z,100636.78
2022-11-08T03:24:04.541Z,100640.41
2022-11-08T03:26:32.494Z,100636.00
2022-11-08T03:28:59.620Z,100641.94
2022-11-08T04:05:47.455Z,100618.09
2022-11-08T04:08:14.751Z,100617.16
2022-11-08T04:10:42.534Z,100620.66
2022-11-08T04:13:28.471Z,100618.03
2022-11-08T04:15:56.141Z,100616.50
2022-11-08T04:18:41.828Z,100625.66
2022-11-08T04:29:47.621Z,100638.63
2022-11-08T04:41:05.676Z,100622.53
2022-11-08T04:43:33.499Z,100622.13
2022-11-08T04:46:11.497Z,100623.13
2022-11-08T04:48:38.830Z,100623.72
2022-11-08T04:51:11.300Z,100624.28
2022-11-08T04:53:38.588Z,100628.53
2022-11-08T04:56:08.275Z,100626.09
2022-11-08T05:50:22.596Z,100624.69
2022-11-08T06:06:07.415Z,100630.69
2022-11-08T06:30:19.978Z,100646.53
2022-11-08T06:50:34.480Z,100651.44
2022-11-08T06:53:06.373Z,100652.44
2022-11-08T06:55:34.859Z,100654.41
2022-11-08T06:58:02.724Z,100649.75
2022-11-08T07:00:29.924Z,100652.97
2022-11-08T07:02:59.105Z,100641.47
2022-11-08T07:05:27.034Z,100652.63
2022-11-08T07:07:54.529Z,100652.88
2022-11-08T07:10:23.639Z,100647.81
2022-11-08T07:12:58.864Z,100649.56
2022-11-08T07:15:25.982Z,100645.09
2022-11-08T07:17:53.117Z,100644.75
2022-11-08T07:20:22.210Z,100650.00
2022-11-08T07:22:49.355Z,100646.47
2022-11-08T07:25:16.482Z,100649.16
2022-11-08T07:27:43.579Z,100641.88
2022-11-08T07:30:11.307Z,100637.41
2022-11-08T07:32:38.410Z,100647.72
2022-11-08T07:35:06.000Z,100647.66
2022-11-08T07:37:33.364Z,100646.72
2022-11-08T07:40:00.467Z,100646.88
2022-11-08T07:42:34.286Z,100651.88
2022-11-08T07:45:11.439Z,100645.63
2022-11-08T07:47:38.863Z,100651.47
2022-11-08T07:50:06.361Z,100642.75
2022-11-08T07:52:33.503Z,100645.13
2022-11-08T07:55:00.606Z,100650.38
2022-11-08T07:57:27.720Z,100650.03
2022-11-08T07:59:54.869Z,100640.97
2022-11-08T08:02:22.116Z,100646.81
2022-11-08T08:04:49.225Z,100641.31
2022-11-08T08:07:16.574Z,100638.41
2022-11-08T08:09:43.702Z,100636.53
2022-11-08T08:12:10.878Z,100629.22
2022-11-08T08:14:37.972Z,100628.22
2022-11-08T08:17:05.161Z,100626.09
2022-11-08T08:19:32.268Z,100622.34
2022-11-08T08:21:59.403Z,100629.13
2022-11-08T08:24:26.637Z,100624.56
2022-11-08T08:26:54.165Z,100621.41
2022-11-08T08:29:21.261Z,100622.66
2022-11-08T08:31:48.520Z,100615.63
2022-11-08T08:34:15.781Z,100614.41
2022-11-08T08:36:42.974Z,100621.00
2022-11-08T08:39:10.195Z,100607.56
2022-11-08T08:41:37.326Z,100618.56
2022-11-08T08:44:04.596Z,100611.34
2022-11-08T08:46:31.726Z,100609.13
2022-11-08T08:48:58.860Z,100608.00
2022-11-08T08:51:25.986Z,100604.97
2022-11-08T08:53:53.078Z,100605.38
2022-11-08T08:56:20.210Z,100608.38
2022-11-08T09:04:08.334Z,100602.66
2022-11-08T09:06:35.509Z,100601.22
2022-11-08T09:09:02.791Z,100604.50
2022-11-08T09:11:30.161Z,100595.16
2022-11-08T09:13:57.320Z,100611.47
2022-11-08T09:16:24.440Z,100603.69
2022-11-08T09:18:51.680Z,100605.97
2022-11-08T09:21:18.932Z,100608.19
2022-11-08T09:23:46.147Z,100618.19
2022-11-08T09:26:13.298Z,100611.38
2022-11-08T09:28:40.413Z,100610.22
2022-11-08T09:31:09.281Z,100601.81
2022-11-08T09:33:37.375Z,100600.56
2022-11-08T09:36:05.725Z,100599.41
2022-11-08T09:38:33.111Z,100611.16
2022-11-08T09:41:29.396Z,100595.19
2022-11-08T09:44:11.179Z,100598.94
2022-11-08T09:46:54.701Z,100593.88
2022-11-08T09:49:25.906Z,100601.31
2022-11-08T09:51:53.367Z,100592.53
2022-11-08T09:54:31.312Z,100598.03
2022-11-08T09:56:58.458Z,100598.34
2022-11-08T09:59:35.304Z,100591.59
2022-11-08T10:02:02.699Z,100590.41
2022-11-08T10:04:32.189Z,100584.50
2022-11-08T10:07:11.319Z,100578.56
2022-11-08T10:10:00.471Z,100584.81
2022-11-08T10:12:33.409Z,100577.91
2022-11-08T10:15:22.158Z,100576.28
2022-11-08T10:18:14.512Z,100582.84
2022-11-08T10:20:56.886Z,100568.97
2022-11-08T10:23:45.260Z,100573.91
2022-11-08T10:26:16.533Z,100582.47
2022-11-08T10:28:50.178Z,100569.97
2022-11-08T10:31:19.464Z,100566.78
2022-11-08T10:33:52.280Z,100572.09
2022-11-08T10:36:32.955Z,100569.53
2022-11-08T10:39:08.953Z,100567.19
2022-11-08T10:41:45.127Z,100555.88
2022-11-08T10:44:17.619Z,100554.03
2022-11-08T10:46:46.766Z,100563.56
2022-11-08T10:49:19.623Z,100554.09
2022-11-08T10:51:48.836Z,100558.41
2022-11-08T10:54:48.026Z,100553.97
2022-11-08T10:57:17.809Z,100550.00
2022-11-08T10:59:45.627Z,100554.94
2022-11-08T11:02:37.824Z,100543.13
2022-11-08T11:05:17.934Z,100541.03
2022-11-08T11:08:02.023Z,100542.38
2022-11-08T11:10:32.769Z,100536.31
2022-11-08T11:13:23.929Z,100541.25
2022-11-08T11:15:57.378Z,100533.06
2022-11-08T11:18:46.408Z,100538.44
2022-11-08T11:21:18.045Z,100536.19
2022-11-08T11:23:55.905Z,100535.59
2022-11-08T11:26:30.853Z,100529.66
2022-11-08T11:29:03.934Z,100533.31
2022-11-08T11:31:36.533Z,100534.56
2022-11-08T11:34:18.556Z,100533.78
2022-11-08T11:37:06.355Z,100529.38
2022-11-08T11:39:54.694Z,100527.13
2022-11-08T11:42:49.389Z,100522.69
2022-11-08T11:45:24.192Z,100514.22
2022-11-08T11:47:53.467Z,100515.69
2022-11-08T11:50:38.339Z,100504.91
2022-11-08T11:53:12.366Z,100505.22
2022-11-08T11:56:03.634Z,100496.44
2022-11-08T11:59:05.009Z,100506.00
2022-11-08T12:01:50.787Z,100507.50
2022-11-08T12:04:24.681Z,100507.66
2022-11-08T12:07:11.887Z,100495.16
2022-11-08T12:10:11.337Z,100494.78
2022-11-08T12:13:27.754Z,100494.50
2022-11-08T12:16:25.432Z,100485.66
2022-11-08T12:19:19.444Z,100482.03
2022-11-08T12:22:01.464Z,100471.97
2022-11-08T12:24:56.330Z,100460.09
2022-11-08T12:27:30.302Z,100463.78
2022-11-08T12:30:17.238Z,100468.56
2022-11-08T12:33:12.141Z,100467.06
2022-11-08T12:35:45.571Z,100465.38
2022-11-08T12:38:24.620Z,100462.50
2022-11-08T12:41:11.752Z,100458.81
2022-11-08T12:43:54.061Z,100458.47
2022-11-08T12:46:21.400Z,100462.56
2022-11-08T12:49:01.450Z,100453.31
2022-11-08T12:51:45.573Z,100458.41
2022-11-08T12:54:26.234Z,100468.78
2022-11-08T12:56:55.701Z,100445.66
2022-11-08T12:59:51.359Z,100444.31
2022-11-08T13:02:24.529Z,100439.84
2022-11-08T13:05:09.210Z,100433.63
2022-11-08T13:07:44.770Z,100436.69
2022-11-08T13:10:17.124Z,100426.56
2022-11-08T13:12:55.463Z,100426.47
2022-11-08T13:15:28.505Z,100418.19
2022-11-08T13:18:07.417Z,100423.75
2022-11-08T13:20:46.765Z,100416.91
2022-11-08T13:23:15.966Z,100415.09
2022-11-08T13:25:43.994Z,100409.38
2022-11-08T13:28:42.919Z,100403.56
2022-11-08T13:31:42.174Z,100392.22
2022-11-08T13:34:28.432Z,100391.78
2022-11-08T13:37:04.461Z,100386.41
2022-11-08T13:39:49.287Z,100385.75
2022-11-08T13:42:16.235Z,100390.41
2022-11-08T13:44:55.207Z,100391.59
2022-11-08T13:47:34.904Z,100392.34
2022-11-08T13:50:31.324Z,100390.88
2022-11-08T13:53:03.019Z,100396.25
2022-11-08T13:55:42.343Z,100400.25
2022-11-08T13:58:34.131Z,100405.28
2022-11-08T14:01:21.150Z,100403.66
2022-11-08T14:03:48.283Z,100406.63
2022-11-08T14:06:38.439Z,100415.59
2022-11-08T14:09:40.778Z,100413.63
2022-11-08T14:12:23.093Z,100404.81
2022-11-08T14:15:07.282Z,100411.25
2022-11-08T14:17:54.605Z,100397.97
2022-11-08T14:20:41.026Z,100384.38
2022-11-08T14:23:20.848Z,100386.63
2022-11-08T14:25:53.701Z,100380.72
2022-11-08T14:28:42.859Z,100386.16
2022-11-08T14:31:34.429Z,100370.47
2022-11-08T14:34:01.814Z,100382.13
2022-11-08T14:36:30.547Z,100375.97
2022-11-08T14:39:05.864Z,100383.91
2022-11-08T14:41:33.557Z,100390.81
2022-11-08T14:44:01.978Z,100376.38
2022-11-08T14:51:13.193Z,100385.03
2022-11-08T15:02:26.212Z,100365.41
2022-11-08T15:04:53.580Z,100363.16
2022-11-08T15:07:21.577Z,100356.97
2022-11-08T15:09:49.032Z,100363.78
2022-11-08T15:12:19.089Z,100361.91
2022-11-08T15:14:57.575Z,100358.38
2022-11-08T15:18:07.826Z,100355.41
2022-11-08T15:20:34.990Z,100349.53
2022-11-08T15:23:02.110Z,100342.09
2022-11-08T15:25:35.344Z,100337.41
2022-11-08T17:47:38.236Z,100317.88
2022-11-08T19:09:34.358Z,100316.16
2022-11-08T19:12:05.741Z,100312.06
2022-11-08T19:36:43.394Z,100331.97
2022-11-08T19:43:28.120Z,100324.38
2022-11-08T19:46:20.524Z,100320.88
2022-11-08T19:48:48.715Z,100322.81
